aviador You're here:

KOFP Decoded Metar

RICHMOND/HANOVER in VA, USA
Report Time2017-07-21 07:54:00
UTC Time2017-07-21 08:44:44
Flight Rules vfr VFR
WindCalm
Visibility9999 m
Phenomena:N/A
Clouds:N/A
Expected CloudBase > 1,200 ft AGL from Temp-Dew spread
CeilingNone
Temp24°C (ISA +9)
Dew Point21°C (83% RH)
QNH1014 hPa
Density Alt1,588 ft
Elevation203 ft
Report Wrong Elevation
Raw Report
KOFP 210754Z AUTO 00000KT 8SM CLR 24/21 A2994 RMK AO2 SLP135
T02390211=

Extra information for KOFP:More info

Metar Taf Metar & Taf Last 4 Metars F.Rules Stats Wind Profile Meteogram Temp Stats Airport Information Weather charts Add Link Nearby VenuesMetar ALERT Operation Metar Decoded Social comments

AIRNAV info for KOFP